createdAt,value
2019-02-12T00:04:55.696Z,95.55
2019-02-12T00:10:32.518Z,95.29
2019-02-12T00:13:00.947Z,94.76
2019-02-12T00:15:29.376Z,94.21
2019-02-12T00:17:57.824Z,93.28
2019-02-12T00:20:26.253Z,94.35
2019-02-12T00:22:54.674Z,94.87
2019-02-12T00:27:57.225Z,94.77
2019-02-12T00:30:25.721Z,94.86
2019-02-12T00:32:54.148Z,95.56
2019-02-12T00:35:22.596Z,95.55
2019-02-12T00:40:24.711Z,94.89
2019-02-12T00:42:53.136Z,94.57
2019-02-12T00:45:21.582Z,95.33
2019-02-12T00:47:50.013Z,95.39
2019-02-12T00:50:18.431Z,95.43
2019-02-12T00:53:06.456Z,95.48
2019-02-12T00:55:34.893Z,95.22
2019-02-12T00:58:03.324Z,97.02
2019-02-12T01:03:25.060Z,96.92
2019-02-12T01:05:53.516Z,96.68
2019-02-12T01:08:21.944Z,96.00
2019-02-12T01:10:50.368Z,95.49
2019-02-12T01:13:18.822Z,95.48
2019-02-12T01:18:34.782Z,95.73
2019-02-12T01:23:50.739Z,95.24
2019-02-12T01:26:19.168Z,95.77
2019-02-12T01:28:47.614Z,96.81
2019-02-12T01:33:50.232Z,96.25
2019-02-12T01:36:18.663Z,95.02
2019-02-12T01:41:20.910Z,92.71
2019-02-12T01:43:49.334Z,91.63
2019-02-12T01:46:17.797Z,91.99
2019-02-12T01:48:46.221Z,92.32
2019-02-12T01:51:14.648Z,91.78
2019-02-12T01:53:43.156Z,90.77
2019-02-12T01:56:11.579Z,90.81
2019-02-12T01:58:40.008Z,90.96
2019-02-12T02:01:27.788Z,90.63
2019-02-12T02:03:56.221Z,90.98
2019-02-12T02:06:24.649Z,90.53
2019-02-12T02:11:26.672Z,90.42
2019-02-12T02:13:55.130Z,90.42
2019-02-12T02:16:23.561Z,91.33
2019-02-12T02:18:52.001Z,91.54
2019-02-12T02:21:20.464Z,92.02
2019-02-12T02:24:28.800Z,92.44
2019-02-12T02:27:16.652Z,92.81
2019-02-12T02:29:45.078Z,93.30
2019-02-12T02:32:13.504Z,93.42
2019-02-12T02:37:16.022Z,93.49
2019-02-12T02:39:44.485Z,93.81
2019-02-12T02:42:12.911Z,93.93
2019-02-12T02:44:41.355Z,94.28
2019-02-12T02:47:29.206Z,94.01
2019-02-12T02:49:57.628Z,95.45
2019-02-12T02:52:26.054Z,95.52
2019-02-12T02:54:54.510Z,96.02
2019-02-12T02:57:22.929Z,96.17
2019-02-12T02:59:51.356Z,95.93
2019-02-12T03:02:19.815Z,95.09
2019-02-12T03:04:48.239Z,94.48
2019-02-12T03:07:16.682Z,94.31
2019-02-12T03:12:38.820Z,93.61
2019-02-12T03:15:47.278Z,92.38
2019-02-12T03:18:15.731Z,91.94
2019-02-12T03:20:44.159Z,92.73
2019-02-12T03:23:12.699Z,90.98
2019-02-12T03:25:41.126Z,89.94
2019-02-12T03:28:09.548Z,90.74
2019-02-12T03:30:38.020Z,91.57
2019-02-12T03:33:06.508Z,92.41
2019-02-12T03:35:34.929Z,92.67
2019-02-12T03:38:03.421Z,92.89
2019-02-12T03:40:31.844Z,92.76
2019-02-12T03:43:00.268Z,92.69
2019-02-12T03:45:28.871Z,91.72
2019-02-12T03:47:57.301Z,90.86
2019-02-12T03:50:25.729Z,90.92
2019-02-12T03:52:54.219Z,90.74
2019-02-12T03:55:22.708Z,90.61
2019-02-12T03:57:51.668Z,91.19
2019-02-12T04:00:20.273Z,89.71
2019-02-12T04:03:05.853Z,90.04
2019-02-12T04:05:35.533Z,89.91
2019-02-12T04:08:04.301Z,90.74
2019-02-12T04:10:32.737Z,90.09
2019-02-12T04:13:01.179Z,90.71
2019-02-12T04:15:29.595Z,89.77
2019-02-12T04:17:58.110Z,89.95
2019-02-12T04:20:26.975Z,89.27
2019-02-12T04:22:55.469Z,88.80
2019-02-12T04:25:23.960Z,88.86
2019-02-12T04:27:52.432Z,89.96
2019-02-12T04:30:20.856Z,90.61
2019-02-12T04:32:49.280Z,91.08
2019-02-12T04:35:17.805Z,91.36
2019-02-12T04:37:46.229Z,91.99
2019-02-12T04:40:14.656Z,92.56
2019-02-12T04:42:43.172Z,92.70
2019-02-12T04:45:12.157Z,92.62
2019-02-12T04:47:40.660Z,93.36
2019-02-12T04:50:15.801Z,92.72
2019-02-12T04:52:44.228Z,92.50
2019-02-12T04:55:13.092Z,92.09
2019-02-12T04:57:41.656Z,91.78
2019-02-12T05:00:17.425Z,91.32
2019-02-12T05:02:46.059Z,91.31
2019-02-12T05:05:14.474Z,91.01
2019-02-12T05:07:42.904Z,90.29
2019-02-12T05:10:23.354Z,90.25
2019-02-12T05:12:51.779Z,90.43
2019-02-12T05:15:20.205Z,92.13
2019-02-12T05:17:48.695Z,92.49
2019-02-12T05:20:28.965Z,92.50
2019-02-12T05:23:06.766Z,93.27
2019-02-12T05:25:40.690Z,93.35
2019-02-12T05:28:16.319Z,93.26
2019-02-12T05:30:53.851Z,93.78
2019-02-12T05:33:34.310Z,93.98
2019-02-12T05:36:12.327Z,94.57
2019-02-12T05:39:02.987Z,93.81
2019-02-12T05:41:42.253Z,93.30
2019-02-12T05:44:31.313Z,91.87
2019-02-12T05:50:01.345Z,91.94
2019-02-12T05:52:38.891Z,92.26
2019-02-12T05:55:11.026Z,91.99
2019-02-12T05:58:03.672Z,92.11
2019-02-12T06:00:51.006Z,91.67
2019-02-12T06:03:21.917Z,91.29
2019-02-12T06:05:57.465Z,91.92
2019-02-12T06:08:30.659Z,91.75
2019-02-12T06:11:06.917Z,91.52
2019-02-12T06:13:41.445Z,91.16
2019-02-12T06:16:10.455Z,91.63
2019-02-12T06:18:38.958Z,91.32
2019-02-12T06:21:07.383Z,91.36
2019-02-12T06:23:35.872Z,91.61
2019-02-12T06:26:04.295Z,91.13
2019-02-12T06:28:32.723Z,91.26
2019-02-12T06:31:01.249Z,91.10
2019-02-12T06:33:29.673Z,91.20
2019-02-12T06:35:58.101Z,91.22
2019-02-12T06:38:26.637Z,91.16
2019-02-12T06:40:55.057Z,91.53
2019-02-12T06:43:23.488Z,91.99
2019-02-12T06:45:51.964Z,91.60
2019-02-12T06:48:20.394Z,91.75
2019-02-12T06:50:48.820Z,91.98
2019-02-12T06:53:17.364Z,92.20
2019-02-12T06:55:45.788Z,91.83
2019-02-12T06:58:14.218Z,92.35
2019-02-12T07:00:42.712Z,92.79
2019-02-12T07:03:13.947Z,93.29
2019-02-12T07:06:00.967Z,93.26
2019-02-12T07:08:49.149Z,93.24
2019-02-12T07:11:55.505Z,93.20
2019-02-12T07:14:41.901Z,93.33
2019-02-12T07:17:16.191Z,94.57
2019-02-12T07:19:50.102Z,93.74
2019-02-12T07:22:46.104Z,93.99
2019-02-12T07:25:23.194Z,93.80
2019-02-12T07:28:09.744Z,93.84
2019-02-12T07:30:53.372Z,93.09
2019-02-12T07:33:27.977Z,92.79
2019-02-12T07:35:59.483Z,92.91
2019-02-12T07:38:39.681Z,92.70
2019-02-12T07:41:23.076Z,92.49
2019-02-12T07:43:57.340Z,92.21
2019-02-12T07:46:40.888Z,92.27
2019-02-12T07:49:27.664Z,93.00
2019-02-12T07:51:59.143Z,91.81
2019-02-12T07:54:58.148Z,90.87
2019-02-12T07:57:49.431Z,90.09
2019-02-12T08:00:26.387Z,90.93
2019-02-12T08:03:14.397Z,90.92
2019-02-12T08:05:54.188Z,90.92
2019-02-12T08:08:34.564Z,90.08
2019-02-12T08:11:21.352Z,89.30
2019-02-12T08:13:52.827Z,88.55
2019-02-12T08:16:27.050Z,89.87
2019-02-12T08:19:15.388Z,89.81
2019-02-12T08:22:04.852Z,88.63
2019-02-12T08:24:48.179Z,88.07
2019-02-12T08:27:40.852Z,88.46
2019-02-12T08:30:12.332Z,87.39
2019-02-12T08:32:46.640Z,87.19
2019-02-12T08:35:33.100Z,87.16
2019-02-12T08:38:37.840Z,86.73
2019-02-12T08:41:24.516Z,86.18
2019-02-12T08:44:12.917Z,86.25
2019-02-12T08:47:08.544Z,86.29
2019-02-12T08:49:45.640Z,86.14
2019-02-12T08:52:20.130Z,86.19
2019-02-12T08:54:51.639Z,84.96
2019-02-12T08:57:32.234Z,84.65
2019-02-12T09:00:18.719Z,82.70
2019-02-12T09:03:09.856Z,83.31
2019-02-12T09:05:56.652Z,83.57
2019-02-12T09:08:28.139Z,83.00
2019-02-12T09:11:17.902Z,83.38
2019-02-12T09:13:49.402Z,82.79
2019-02-12T09:16:35.814Z,81.98
2019-02-12T09:19:42.850Z,82.26
2019-02-12T09:22:49.890Z,82.21
2019-02-12T09:25:58.220Z,82.38
2019-02-12T09:29:06.733Z,81.91
2019-02-12T09:32:15.146Z,81.68
2019-02-12T09:35:23.595Z,81.49
2019-02-12T09:38:32.026Z,81.70
2019-02-12T09:41:39.112Z,81.14
2019-02-12T09:44:46.132Z,80.88
2019-02-12T09:47:54.507Z,79.81
2019-02-12T09:51:02.853Z,79.20
2019-02-12T09:54:11.327Z,79.33
2019-02-12T09:57:18.347Z,78.86
2019-02-12T10:00:26.779Z,78.71
2019-02-12T10:03:35.152Z,78.22
2019-02-12T10:06:43.555Z,78.65
2019-02-12T10:09:51.909Z,78.41
2019-02-12T10:12:59.103Z,77.61
2019-02-12T10:16:06.115Z,77.51
2019-02-12T10:19:13.522Z,77.55
2019-02-12T10:22:21.862Z,77.05
2019-02-12T10:25:30.524Z,76.98
2019-02-12T10:28:48.384Z,76.37
2019-02-12T10:39:50.314Z,76.19
2019-02-12T10:44:52.228Z,75.92
2019-02-12T10:47:20.656Z,75.31
2019-02-12T10:49:49.151Z,75.87
2019-02-12T10:52:17.581Z,75.24
2019-02-12T10:55:05.227Z,75.38
2019-02-12T10:57:33.640Z,75.65
2019-02-12T11:00:02.073Z,75.06
2019-02-12T11:03:10.510Z,74.70
2019-02-12T11:05:58.125Z,74.65
2019-02-12T11:08:26.588Z,73.85
2019-02-12T11:10:55.016Z,73.92
2019-02-12T11:13:23.438Z,73.87
2019-02-12T11:18:26.277Z,73.40
2019-02-12T11:20:54.737Z,72.71
2019-02-12T11:23:23.235Z,72.10
2019-02-12T11:25:51.656Z,72.48
2019-02-12T11:28:20.121Z,72.39
2019-02-12T11:30:48.543Z,72.39
2019-02-12T11:33:16.970Z,71.29
2019-02-12T11:38:39.662Z,69.55
2019-02-12T11:41:08.101Z,69.49
2019-02-12T11:43:36.525Z,70.10
2019-02-12T11:48:39.274Z,69.90
2019-02-12T11:51:07.769Z,69.70
2019-02-12T11:53:36.211Z,68.97
2019-02-12T11:56:23.860Z,68.68
2019-02-12T11:58:52.288Z,68.72
2019-02-12T12:06:43.653Z,66.84
2019-02-12T12:11:45.684Z,66.60
2019-02-12T12:14:14.173Z,66.86
2019-02-12T12:16:42.684Z,66.60
2019-02-12T12:19:11.149Z,65.10
2019-02-12T12:21:39.598Z,63.53
2019-02-12T12:24:27.209Z,64.08
2019-02-12T12:27:15.083Z,64.95
2019-02-12T12:29:43.484Z,64.75
2019-02-12T12:32:11.907Z,63.60
2019-02-12T12:34:59.632Z,64.96
2019-02-12T12:37:47.376Z,65.24
2019-02-12T12:40:15.868Z,65.12
2019-02-12T12:42:44.297Z,64.53
2019-02-12T12:45:52.669Z,62.24
2019-02-12T12:48:21.128Z,63.36
2019-02-12T12:50:49.530Z,62.60
2019-02-12T12:55:52.471Z,62.43
2019-02-12T12:58:20.899Z,63.02
2019-02-12T13:00:49.417Z,62.47
2019-02-12T13:03:17.840Z,61.03
2019-02-12T13:05:46.267Z,60.71
2019-02-12T13:08:14.726Z,60.92
2019-02-12T13:11:02.345Z,61.01
2019-02-12T13:13:30.796Z,60.35
2019-02-12T13:15:59.221Z,60.69
2019-02-12T13:18:27.656Z,59.87
2019-02-12T13:20:56.103Z,60.01
2019-02-12T13:23:24.528Z,60.57
2019-02-12T13:25:52.958Z,58.46
2019-02-12T13:30:55.009Z,57.63
2019-02-12T13:33:42.720Z,57.56
2019-02-12T13:36:30.473Z,56.98
2019-02-12T13:41:33.185Z,57.86
2019-02-12T13:44:20.961Z,55.95
2019-02-12T13:47:08.704Z,53.97
2019-02-12T13:49:37.192Z,56.14
2019-02-12T13:52:05.622Z,55.23
2019-02-12T13:57:54.671Z,55.12
2019-02-12T14:00:23.128Z,55.47
2019-02-12T14:02:51.551Z,55.47
2019-02-12T14:08:13.131Z,55.27
2019-02-12T14:10:41.552Z,55.48
2019-02-12T14:15:43.607Z,56.48
2019-02-12T14:18:12.062Z,56.19
2019-02-12T14:20:40.483Z,56.75
2019-02-12T14:23:08.915Z,56.65
2019-02-12T14:25:37.418Z,56.59
2019-02-12T14:28:45.767Z,56.62
2019-02-12T14:31:14.217Z,56.30
2019-02-12T14:33:42.639Z,56.43
2019-02-12T14:36:30.283Z,56.50
2019-02-12T14:38:58.707Z,56.71
2019-02-12T14:41:27.141Z,56.52
2019-02-12T14:44:14.794Z,55.30
2019-02-12T14:46:43.236Z,55.53
2019-02-12T14:49:51.669Z,56.20
2019-02-12T14:52:20.095Z,56.07
2019-02-12T14:54:48.540Z,56.69
2019-02-12T14:57:17.071Z,56.66
2019-02-12T14:59:45.499Z,57.06
2019-02-12T15:13:10.610Z,59.87
2019-02-12T15:18:12.715Z,59.73
2019-02-12T15:21:00.469Z,60.10
2019-02-12T15:23:28.931Z,59.46
2019-02-12T15:25:57.360Z,60.40
2019-02-12T15:28:25.779Z,60.58
2019-02-12T15:30:54.308Z,60.72
2019-02-12T15:33:22.733Z,60.79
2019-02-12T15:35:51.161Z,61.40
2019-02-12T15:38:19.647Z,61.84
2019-02-12T15:40:48.070Z,62.65
2019-02-12T15:43:16.496Z,62.52
2019-02-12T15:48:18.988Z,62.65
2019-02-12T15:50:47.417Z,62.85
2019-02-12T15:55:51.550Z,62.76
2019-02-12T15:58:20.223Z,62.56
2019-02-12T16:00:48.648Z,61.77
2019-02-12T16:03:18.380Z,62.63
2019-02-12T16:05:47.247Z,62.45
2019-02-12T16:08:15.671Z,62.61
2019-02-12T16:10:44.095Z,62.68
2019-02-12T16:13:13.687Z,62.72
2019-02-12T16:15:44.819Z,62.69
2019-02-12T16:18:12.836Z,63.09
2019-02-12T16:20:41.312Z,63.79
2019-02-12T16:23:09.736Z,63.90
2019-02-12T16:25:38.161Z,63.95
2019-02-12T16:28:06.619Z,63.62
2019-02-12T16:30:35.035Z,63.94
2019-02-12T16:33:03.460Z,63.78
2019-02-12T16:35:31.911Z,64.49
2019-02-12T16:38:19.542Z,64.88
2019-02-12T16:40:48.006Z,65.54
2019-02-12T16:43:16.432Z,65.78
2019-02-12T16:46:25.117Z,66.49
2019-02-12T16:48:53.540Z,66.37
2019-02-12T16:51:21.997Z,67.46
2019-02-12T16:53:50.451Z,68.01
2019-02-12T16:56:38.067Z,68.97
2019-02-12T16:59:25.720Z,70.28
2019-02-12T17:01:54.144Z,70.54
2019-02-12T17:04:22.568Z,71.28
2019-02-12T17:07:31.139Z,71.98
2019-02-12T17:09:59.576Z,71.96
2019-02-12T17:12:28.000Z,73.16
2019-02-12T17:14:56.454Z,73.55
2019-02-12T17:17:44.202Z,73.47
2019-02-12T17:20:31.996Z,72.80
2019-02-12T17:23:00.419Z,72.52
2019-02-12T17:25:28.844Z,73.77
2019-02-12T17:30:30.770Z,74.67
2019-02-12T17:32:59.192Z,74.58
2019-02-12T17:35:46.883Z,75.08
2019-02-12T17:41:23.739Z,76.21
2019-02-12T17:43:52.163Z,76.65
2019-02-12T17:46:40.147Z,77.38
2019-02-12T17:49:08.581Z,77.23
2019-02-12T17:51:37.003Z,77.98
2019-02-12T17:54:05.473Z,78.44
2019-02-12T17:56:33.899Z,79.44
2019-02-12T17:59:21.677Z,79.55
2019-02-12T18:01:50.100Z,79.15
2019-02-12T18:04:37.895Z,78.79
2019-02-12T18:07:06.319Z,78.33
2019-02-12T18:09:34.744Z,79.34
2019-02-12T18:12:22.525Z,80.17
2019-02-12T18:14:50.947Z,80.24
2019-02-12T18:17:38.589Z,81.72
2019-02-12T18:20:46.929Z,81.28
2019-02-12T18:23:15.399Z,81.03
2019-02-12T18:25:43.826Z,82.08
2019-02-12T18:28:31.500Z,82.45
2019-02-12T18:30:59.929Z,82.51
2019-02-12T18:33:28.361Z,82.69
2019-02-12T18:38:30.757Z,82.96
2019-02-12T18:43:33.054Z,82.79
2019-02-12T18:46:21.034Z,83.00
2019-02-12T18:48:49.509Z,82.72
2019-02-12T18:51:20.778Z,83.22
2019-02-12T18:54:08.583Z,83.53
2019-02-12T18:56:41.584Z,83.80
2019-02-12T18:59:07.201Z,84.27
2019-02-12T19:04:09.999Z,84.08
2019-02-12T19:06:57.756Z,83.39
2019-02-12T19:09:26.211Z,83.52
2019-02-12T19:11:54.716Z,83.34
2019-02-12T19:14:23.168Z,83.87
2019-02-12T19:19:59.729Z,84.77
2019-02-12T19:22:47.519Z,85.10
2019-02-12T19:28:28.589Z,85.32
2019-02-12T19:31:16.371Z,84.93
2019-02-12T19:34:04.158Z,85.10
2019-02-12T19:36:52.105Z,85.25
2019-02-12T19:40:00.486Z,85.51
2019-02-12T19:48:30.153Z,85.95
2019-02-12T19:51:17.877Z,85.53
2019-02-12T19:54:05.713Z,85.21
2019-02-12T19:56:58.333Z,85.63
2019-02-12T19:59:23.620Z,86.55
2019-02-12T20:02:11.424Z,86.70
2019-02-12T20:04:59.268Z,87.19
2019-02-12T20:07:46.965Z,87.89
2019-02-12T20:10:55.397Z,87.60
2019-02-12T20:13:43.060Z,87.10
2019-02-12T20:19:23.714Z,87.75
2019-02-12T20:24:45.454Z,88.12
2019-02-12T20:33:21.468Z,88.79
2019-02-12T20:36:09.232Z,88.84
2019-02-12T20:38:56.945Z,88.48
2019-02-12T20:41:44.785Z,88.32
2019-02-12T20:44:32.638Z,87.86
2019-02-12T20:47:20.495Z,88.76
2019-02-12T20:50:08.300Z,89.01
2019-02-12T20:52:56.196Z,89.40
2019-02-12T20:55:43.998Z,89.46
2019-02-12T20:58:31.845Z,89.23
2019-02-12T21:01:19.626Z,89.20
2019-02-12T21:03:48.155Z,88.75
2019-02-12T21:06:35.941Z,89.19
2019-02-12T21:09:43.051Z,89.51
2019-02-12T21:12:30.868Z,90.02
2019-02-12T21:15:18.695Z,90.10
2019-02-12T21:18:06.405Z,89.82
2019-02-12T21:20:34.904Z,90.39
2019-02-12T21:23:03.366Z,90.99
2019-02-12T21:25:51.214Z,90.19
2019-02-12T21:36:42.021Z,90.28
2019-02-12T21:44:57.717Z,89.01
2019-02-12T21:47:26.188Z,89.71
2019-02-12T21:50:13.979Z,91.04
2019-02-12T21:53:01.796Z,90.83
2019-02-12T21:55:30.241Z,90.37
2019-02-12T21:57:58.876Z,90.76
2019-02-12T22:00:46.416Z,89.30
2019-02-12T22:03:14.840Z,89.52
2019-02-12T22:05:43.267Z,89.66
2019-02-12T22:08:11.744Z,89.41
2019-02-12T22:10:46.244Z,90.52
2019-02-12T22:13:10.312Z,90.41
2019-02-12T22:15:38.855Z,90.64
2019-02-12T22:18:07.280Z,90.82
2019-02-12T22:20:35.996Z,90.63
2019-02-12T22:23:04.563Z,90.77
2019-02-12T22:25:52.620Z,90.69
2019-02-12T22:28:21.082Z,91.34
2019-02-12T22:30:49.508Z,91.19
2019-02-12T22:33:17.936Z,90.38
2019-02-12T22:35:46.772Z,90.94
2019-02-12T22:38:15.292Z,90.66
2019-02-12T22:40:43.722Z,90.88
2019-02-12T22:43:12.176Z,90.95
2019-02-12T22:45:40.716Z,91.30
2019-02-12T22:48:09.240Z,92.09
2019-02-12T22:50:57.233Z,91.82
2019-02-12T22:53:25.711Z,91.42
2019-02-12T22:55:54.088Z,91.49
2019-02-12T22:58:22.971Z,92.42
2019-02-12T23:04:00.511Z,93.19
2019-02-12T23:06:29.012Z,92.38
2019-02-12T23:08:57.525Z,92.33
2019-02-12T23:11:26.639Z,91.87
2019-02-12T23:13:56.436Z,91.66
2019-02-12T23:16:24.860Z,91.80
2019-02-12T23:18:53.312Z,91.91
2019-02-12T23:21:21.736Z,92.49
2019-02-12T23:29:11.863Z,92.66
2019-02-12T23:31:41.180Z,92.22
2019-02-12T23:34:09.692Z,92.01
2019-02-12T23:39:25.653Z,92.01
2019-02-12T23:42:13.330Z,92.10
2019-02-12T23:44:41.875Z,91.93
2019-02-12T23:47:10.308Z,91.57
2019-02-12T23:49:39.069Z,91.50
2019-02-12T23:52:07.545Z,91.51
2019-02-12T23:54:55.224Z,92.01
2019-02-12T23:57:23.693Z,91.89
2019-02-12T23:59:52.122Z,92.44
